createdAt,value
2018-04-06T06:50:18.509Z,6.30
2018-04-06T06:50:35.997Z,3.65
2018-04-06T06:50:53.498Z,4.07
2018-04-06T06:51:10.994Z,4.30
2018-04-06T06:51:28.497Z,4.10
2018-04-06T06:51:46.771Z,4.10
2018-04-06T06:52:04.270Z,4.07
2018-04-06T06:52:21.761Z,4.03
2018-04-06T06:52:39.246Z,3.78
2018-04-06T06:52:56.745Z,3.92
2018-04-06T06:53:14.264Z,3.97
2018-04-06T06:53:31.745Z,3.85
2018-04-06T06:53:49.234Z,4.30
2018-04-06T06:54:06.722Z,4.35
2018-04-06T06:54:24.201Z,3.90
2018-04-06T06:54:42.470Z,4.20
2018-04-06T06:54:59.956Z,4.43
2018-04-06T06:55:18.198Z,4.12
2018-04-06T06:55:35.721Z,4.03
2018-04-06T06:55:53.206Z,3.90
2018-04-06T06:56:11.465Z,4.25
2018-04-06T06:56:29.732Z,4.45
2018-04-06T06:56:48.063Z,4.45
2018-04-06T06:57:05.649Z,4.03
2018-04-06T06:57:23.166Z,4.40
2018-04-06T06:57:40.739Z,4.40
2018-04-06T06:57:58.329Z,4.20
2018-04-06T06:58:15.907Z,4.22
2018-04-06T06:58:33.406Z,4.10
2018-04-06T06:58:50.926Z,4.10
2018-04-06T06:59:08.491Z,4.20
2018-04-06T06:59:26.041Z,4.18
2018-04-06T06:59:43.624Z,4.05
2018-04-06T07:00:01.194Z,4.55
2018-04-06T07:00:18.731Z,4.20
2018-04-06T07:00:36.226Z,4.00
2018-04-06T07:00:54.489Z,4.37
2018-04-06T07:01:11.985Z,4.07
2018-04-06T07:01:29.985Z,4.00
2018-04-06T07:01:48.269Z,3.87
2018-04-06T07:02:05.867Z,3.90
2018-04-06T07:02:23.354Z,3.70
2018-04-06T07:02:41.614Z,3.72
2018-04-06T07:02:59.126Z,3.75
2018-04-06T07:03:16.666Z,4.10
2018-04-06T07:03:34.189Z,4.20
2018-04-06T07:03:51.715Z,4.60
2018-04-06T07:04:09.213Z,4.57
2018-04-06T07:04:26.714Z,4.22
2018-04-06T07:04:44.207Z,4.07
2018-04-06T07:05:01.715Z,4.43
2018-04-06T07:05:19.300Z,4.25
2018-04-06T07:05:36.793Z,4.12
2018-04-06T07:05:54.286Z,4.00
2018-04-06T07:06:12.540Z,3.70
2018-04-06T07:06:30.035Z,4.20
2018-04-06T07:06:48.290Z,4.37
2018-04-06T07:07:05.781Z,4.40
2018-04-06T07:07:23.260Z,4.43
2018-04-06T07:07:40.756Z,4.15
2018-04-06T07:07:58.259Z,4.55
2018-04-06T07:08:15.769Z,4.40
2018-04-06T07:08:33.309Z,4.28
2018-04-06T07:08:50.812Z,4.20
2018-04-06T07:09:08.351Z,4.47
2018-04-06T07:09:25.832Z,4.30
2018-04-06T07:09:43.323Z,3.10
2018-04-06T07:10:00.811Z,3.90
2018-04-06T07:10:18.293Z,3.95
2018-04-06T07:10:35.785Z,4.10
2018-04-06T07:10:54.707Z,4.20
2018-04-06T07:11:12.997Z,3.83
2018-04-06T07:11:31.169Z,3.85
2018-04-06T07:11:48.659Z,4.07
2018-04-06T07:12:06.143Z,3.87
2018-04-06T07:12:23.650Z,3.78
2018-04-06T07:12:41.129Z,4.00
2018-04-06T07:12:59.375Z,3.97
2018-04-06T07:13:16.888Z,4.10
2018-04-06T07:13:34.374Z,3.90
2018-04-06T07:13:52.637Z,4.22
2018-04-06T07:14:10.134Z,4.40
2018-04-06T07:14:27.641Z,4.10
2018-04-06T07:14:45.137Z,4.40
2018-04-06T07:15:03.390Z,4.35
2018-04-06T07:15:20.882Z,4.15
2018-04-06T07:15:38.374Z,4.20
2018-04-06T07:15:56.663Z,4.20
2018-04-06T07:16:14.183Z,4.22
2018-04-06T07:16:31.702Z,4.30
2018-04-06T15:59:21.922Z,1.48
2018-04-06T15:59:47.077Z,1.90
2018-04-06T16:00:07.897Z,2.08
2018-04-06T16:00:31.859Z,2.00
2018-04-06T16:00:51.461Z,2.17
2018-04-06T16:01:12.958Z,2.15
2018-04-06T16:01:31.431Z,1.98
2018-04-06T16:01:51.310Z,1.92
2018-04-06T16:02:09.682Z,2.10
2018-04-06T16:02:30.746Z,1.98
2018-04-06T16:02:48.652Z,1.80
2018-04-06T16:03:07.952Z,1.90
2018-04-06T16:03:26.453Z,2.05
2018-04-06T16:03:48.704Z,2.10
2018-04-06T16:04:15.170Z,2.00
2018-04-06T16:04:33.598Z,1.98
2018-04-06T16:04:51.202Z,1.85
2018-04-06T16:05:08.705Z,1.95
2018-04-06T16:05:26.198Z,2.00
2018-04-06T16:05:43.720Z,2.08
2018-04-06T16:06:01.216Z,2.20
2018-04-06T16:06:18.701Z,2.10
2018-04-06T16:06:36.194Z,2.08
2018-04-06T16:06:54.441Z,2.03
2018-04-06T16:07:12.012Z,1.92
2018-04-06T16:07:29.512Z,1.80
2018-04-06T16:07:47.024Z,1.90
2018-04-06T16:08:04.548Z,2.00
2018-04-06T16:08:22.068Z,1.92
2018-04-06T16:08:39.690Z,2.10
2018-04-06T16:08:57.217Z,2.28
2018-04-06T16:09:14.822Z,2.00
2018-04-06T16:09:32.350Z,1.90
2018-04-06T16:09:49.849Z,1.92
2018-04-06T16:10:07.330Z,1.90
2018-04-06T16:10:24.831Z,2.00
2018-04-06T16:10:42.894Z,2.10
2018-04-06T16:11:00.401Z,1.92
2018-04-06T16:11:17.884Z,2.10
2018-04-06T16:11:35.998Z,2.03
2018-04-06T16:11:53.486Z,2.10
2018-04-06T16:12:10.982Z,2.03
2018-04-06T16:12:28.584Z,1.85
2018-04-06T16:12:46.298Z,1.95
2018-04-06T16:13:03.825Z,1.83
2018-04-06T16:13:26.488Z,1.73
2018-04-06T16:13:44.463Z,1.73
2018-04-06T16:14:04.784Z,1.90
2018-04-06T16:14:27.529Z,2.10
2018-04-06T16:14:45.209Z,1.90
2018-04-06T16:15:03.207Z,1.90
2018-04-06T16:15:21.067Z,2.08
2018-04-06T16:15:39.501Z,2.10
2018-04-06T16:15:57.043Z,1.90
2018-04-06T16:16:16.695Z,1.90
2018-04-06T16:16:38.815Z,1.98
2018-04-06T16:17:01.229Z,1.80
2018-04-06T16:17:19.782Z,1.90
2018-04-06T16:17:38.263Z,1.90
2018-04-06T16:17:56.565Z,2.00
2018-04-06T16:18:14.062Z,1.85
2018-04-06T16:18:31.633Z,1.77
2018-04-06T16:18:49.139Z,1.80
2018-04-06T16:19:06.625Z,1.80
2018-04-06T16:19:24.117Z,2.00
2018-04-06T16:19:41.613Z,1.90
2018-04-06T16:19:59.106Z,2.08
2018-04-06T16:20:16.604Z,1.90
2018-04-06T16:20:34.479Z,1.70
2018-04-06T16:20:52.034Z,2.03
2018-04-06T16:21:09.544Z,2.03
2018-04-06T16:21:27.085Z,1.98
2018-04-06T16:21:44.593Z,2.10
2018-04-06T16:22:02.982Z,2.00
2018-04-06T16:22:20.484Z,1.90
2018-04-06T16:22:37.968Z,1.90
2018-04-06T16:22:56.144Z,2.10
2018-04-06T16:23:13.634Z,2.08
2018-04-06T16:23:31.124Z,1.90
2018-04-06T16:23:48.656Z,1.90
2018-04-06T16:24:06.145Z,1.90
2018-04-06T16:24:23.650Z,1.90
2018-04-06T16:24:41.145Z,1.70
2018-04-06T16:24:58.641Z,1.70
2018-04-06T16:25:16.130Z,1.75
2018-04-06T16:25:33.623Z,1.83
2018-04-06T16:25:51.214Z,1.80
2018-04-06T16:26:08.708Z,1.77
2018-04-06T16:26:26.256Z,1.80
2018-04-06T16:26:44.586Z,1.77
2018-04-06T16:27:02.105Z,1.87
2018-04-06T16:27:19.609Z,1.90
2018-04-06T16:27:37.103Z,1.70
2018-04-06T16:27:54.605Z,1.70
2018-04-06T16:28:12.117Z,1.83
2018-04-06T16:28:29.609Z,1.90
2018-04-06T16:28:47.138Z,2.00
2018-04-06T16:29:04.641Z,2.20
2018-04-06T16:29:22.209Z,2.10
2018-04-06T16:29:39.718Z,1.87
2018-04-06T16:29:57.200Z,1.73
2018-04-06T16:30:14.706Z,1.90
2018-04-06T16:30:32.226Z,2.00
2018-04-06T16:30:49.725Z,1.92
2018-04-06T16:31:07.252Z,2.10
2018-04-06T16:31:24.860Z,1.83
2018-04-06T16:31:42.403Z,1.80
2018-04-06T16:32:00.673Z,1.90
2018-04-06T16:32:18.249Z,1.90
2018-04-06T16:32:35.761Z,1.85
2018-04-06T16:32:54.022Z,1.90
2018-04-06T16:33:11.501Z,1.98
2018-04-06T16:33:28.982Z,1.90
2018-04-06T16:33:46.489Z,1.83
2018-04-06T16:34:04.005Z,2.00
2018-04-06T16:34:21.499Z,1.85
2018-04-06T16:34:39.001Z,2.08
2018-04-06T16:34:56.481Z,1.90
2018-04-06T16:35:13.972Z,1.90
2018-04-06T16:35:32.231Z,1.87
2018-04-06T16:35:49.716Z,2.10
2018-04-06T16:36:07.201Z,2.05
2018-04-06T16:36:24.733Z,2.03
2018-04-06T16:36:42.990Z,1.80
2018-04-06T16:37:00.477Z,2.00
2018-04-06T16:37:17.977Z,2.17
2018-04-06T16:37:35.464Z,2.30
2018-04-06T16:37:52.953Z,2.25
2018-04-06T16:38:10.448Z,2.17
2018-04-06T16:38:27.941Z,2.30
2018-04-06T16:38:45.464Z,2.17
2018-04-06T16:39:02.977Z,2.00
2018-04-06T16:39:20.452Z,2.15
2018-04-06T16:39:37.954Z,1.90
2018-04-06T16:39:56.204Z,1.90
2018-04-06T16:40:13.689Z,2.00
2018-04-06T16:40:31.953Z,2.10
2018-04-06T16:40:49.443Z,2.30
2018-04-06T16:41:06.955Z,2.28
2018-04-06T16:41:24.448Z,2.03
2018-04-06T16:41:42.698Z,2.05
2018-04-06T16:42:00.182Z,2.20
2018-04-06T16:42:18.684Z,2.35
2018-04-06T16:42:36.194Z,2.42
2018-04-06T16:42:53.673Z,2.22
2018-04-06T16:43:11.184Z,2.40
2018-04-06T16:43:28.668Z,2.40
2018-04-06T16:43:46.161Z,2.50
2018-04-06T16:44:03.657Z,2.37
2018-04-06T16:44:21.169Z,2.45
2018-04-06T16:44:38.658Z,3.28
2018-04-06T16:44:56.909Z,4.05
2018-04-06T16:45:14.393Z,16.73
2018-04-06T16:45:31.884Z,21.67
2018-04-06T16:45:49.382Z,15.18
2018-04-06T16:46:06.876Z,16.90
2018-04-06T16:46:24.393Z,18.40
2018-04-06T16:46:42.794Z,18.67
2018-04-06T16:47:00.289Z,22.27
2018-04-06T16:47:17.772Z,26.65
2018-04-06T16:47:35.274Z,32.28
2018-04-06T16:47:52.774Z,33.42
2018-04-06T16:48:10.296Z,33.00
2018-04-06T16:48:27.795Z,32.03
2018-04-06T16:48:45.301Z,28.38
2018-04-06T16:49:02.944Z,28.55
2018-04-06T16:49:20.454Z,32.45
2018-04-06T16:49:37.949Z,32.28
2018-04-06T16:49:55.445Z,30.73
2018-04-06T16:50:12.929Z,28.52
2018-04-06T16:50:31.184Z,28.35
2018-04-06T16:50:48.697Z,30.05
2018-04-06T16:51:06.198Z,27.98
2018-04-06T16:51:23.762Z,27.50
2018-04-06T16:51:42.181Z,29.23
2018-04-06T16:51:59.677Z,29.37
2018-04-06T16:52:17.202Z,29.17
2018-04-06T16:52:34.701Z,28.42
2018-04-06T16:52:52.192Z,27.75
2018-04-06T16:53:09.701Z,27.00
2018-04-06T16:53:27.210Z,26.90
2018-04-06T16:53:44.714Z,26.23
2018-04-06T16:54:02.245Z,26.25
2018-04-06T16:54:19.757Z,27.17
2018-04-06T16:54:37.249Z,28.15
2018-04-06T16:54:54.757Z,27.67
2018-04-06T16:55:12.262Z,27.73
2018-04-06T16:55:29.786Z,27.27
2018-04-06T16:55:47.329Z,26.92
2018-04-06T16:56:04.838Z,27.35
2018-04-06T16:56:22.340Z,27.48
2018-04-06T16:56:39.933Z,26.83
2018-04-06T16:56:58.528Z,26.20
2018-04-06T16:57:16.057Z,26.33
2018-04-06T16:57:34.333Z,25.60
2018-04-06T16:57:51.829Z,25.10
2018-04-06T16:58:09.326Z,25.17
2018-04-06T16:58:26.859Z,25.80
2018-04-06T16:58:45.232Z,26.77
2018-04-06T16:59:02.714Z,26.12
2018-04-06T16:59:20.214Z,25.83
2018-04-06T16:59:38.484Z,25.88
2018-04-06T16:59:55.974Z,25.48
2018-04-06T17:00:13.465Z,24.92
2018-04-06T17:00:31.049Z,24.83
2018-04-06T17:00:48.557Z,24.17
2018-04-06T17:01:06.066Z,24.75
2018-04-06T17:01:24.356Z,25.15
2018-04-06T17:01:41.840Z,24.60
2018-04-06T17:01:59.338Z,24.83
2018-04-06T17:02:16.846Z,24.33
2018-04-06T17:02:34.343Z,24.00
2018-04-06T17:02:51.836Z,24.73
2018-04-06T17:03:10.097Z,23.77
2018-04-06T17:03:27.580Z,24.25
2018-04-06T17:03:45.072Z,24.15
2018-04-06T17:04:03.352Z,22.60
2018-04-06T17:04:20.850Z,23.77
2018-04-06T17:04:38.340Z,23.42
2018-04-06T17:04:55.859Z,22.02
2018-04-06T17:05:13.400Z,21.40
2018-04-06T17:05:30.898Z,20.42
2018-04-06T17:05:48.408Z,20.77
2018-04-06T17:06:05.905Z,20.02
